sensor_id;sensor_type;location;lat;lon;timestamp;P1;durP1;ratioP1;P2;durP2;ratioP2
18574;SDS011;9417;16.484;102.872;2023-06-22T00:00:22;17.80;;;11.13;;
18574;SDS011;9417;16.484;102.872;2023-06-22T00:02:30;16.77;;;11.15;;
18574;SDS011;9417;16.484;102.872;2023-06-22T00:04:38;13.20;;;9.70;;
18574;SDS011;9417;16.484;102.872;2023-06-22T00:06:45;13.15;;;8.50;;
18574;SDS011;9417;16.484;102.872;2023-06-22T00:08:55;11.00;;;8.07;;
18574;SDS011;9417;16.484;102.872;2023-06-22T00:11:02;11.45;;;7.35;;
18574;SDS011;9417;16.484;102.872;2023-06-22T00:13:10;9.98;;;7.43;;
18574;SDS011;9417;16.484;102.872;2023-06-22T00:15:19;9.55;;;7.55;;
18574;SDS011;9417;16.484;102.872;2023-06-22T00:17:26;12.02;;;6.82;;
18574;SDS011;9417;16.484;102.872;2023-06-22T00:19:34;10.45;;;7.13;;
18574;SDS011;9417;16.484;102.872;2023-06-22T00:21:44;11.27;;;7.05;;
18574;SDS011;9417;16.484;102.872;2023-06-22T00:23:51;10.15;;;6.93;;
18574;SDS011;9417;16.484;102.872;2023-06-22T00:26:01;14.07;;;8.73;;
18574;SDS011;9417;16.484;102.872;2023-06-22T00:28:08;14.43;;;7.18;;
18574;SDS011;9417;16.484;102.872;2023-06-22T00:30:16;15.57;;;13.93;;
18574;SDS011;9417;16.484;102.872;2023-06-22T00:32:24;11.15;;;8.55;;
18574;SDS011;9417;16.484;102.872;2023-06-22T00:34:32;14.48;;;8.25;;
18574;SDS011;9417;16.484;102.872;2023-06-22T00:36:39;11.63;;;7.82;;
18574;SDS011;9417;16.484;102.872;2023-06-22T00:38:47;10.82;;;6.70;;
18574;SDS011;9417;16.484;102.872;2023-06-22T00:40:57;11.38;;;6.15;;
18574;SDS011;9417;16.484;102.872;2023-06-22T00:43:04;9.63;;;5.63;;
18574;SDS011;9417;16.484;102.872;2023-06-22T00:45:12;10.40;;;6.22;;
18574;SDS011;9417;16.484;102.872;2023-06-22T00:47:20;9.35;;;6.03;;
18574;SDS011;9417;16.484;102.872;2023-06-22T00:49:27;8.60;;;4.95;;
18574;SDS011;9417;16.484;102.872;2023-06-22T00:51:35;9.23;;;5.90;;
18574;SDS011;9417;16.484;102.872;2023-06-22T00:53:51;7.63;;;5.65;;
18574;SDS011;9417;16.484;102.872;2023-06-22T00:56:00;11.63;;;6.45;;
18574;SDS011;9417;16.484;102.872;2023-06-22T00:58:10;9.55;;;5.00;;
18574;SDS011;9417;16.484;102.872;2023-06-22T01:00:18;9.30;;;4.95;;
18574;SDS011;9417;16.484;102.872;2023-06-22T01:02:28;8.65;;;5.43;;
18574;SDS011;9417;16.484;102.872;2023-06-22T01:04:36;8.70;;;4.38;;
18574;SDS011;9417;16.484;102.872;2023-06-22T01:06:45;10.35;;;4.70;;
18574;SDS011;9417;16.484;102.872;2023-06-22T01:09:02;7.78;;;4.43;;
18574;SDS011;9417;16.484;102.872;2023-06-22T01:11:21;9.00;;;4.75;;
18574;SDS011;9417;16.484;102.872;2023-06-22T01:13:35;8.18;;;4.75;;
18574;SDS011;9417;16.484;102.872;2023-06-22T01:15:47;6.63;;;3.72;;
18574;SDS011;9417;16.484;102.872;2023-06-22T01:18:00;9.63;;;4.30;;
18574;SDS011;9417;16.484;102.872;2023-06-22T01:20:11;7.03;;;4.53;;
18574;SDS011;9417;16.484;102.872;2023-06-22T01:22:22;7.15;;;4.50;;
18574;SDS011;9417;16.484;102.872;2023-06-22T01:24:33;8.40;;;4.05;;
18574;SDS011;9417;16.484;102.872;2023-06-22T01:26:56;7.07;;;4.55;;
18574;SDS011;9417;16.484;102.872;2023-06-22T01:29:12;7.45;;;3.85;;
18574;SDS011;9417;16.484;102.872;2023-06-22T01:31:24;6.18;;;3.83;;
18574;SDS011;9417;16.484;102.872;2023-06-22T01:33:33;15.23;;;11.05;;
18574;SDS011;9417;16.484;102.872;2023-06-22T01:35:43;18.95;;;17.35;;
18574;SDS011;9417;16.484;102.872;2023-06-22T01:37:51;6.68;;;4.15;;
18574;SDS011;9417;16.484;102.872;2023-06-22T01:39:58;7.72;;;4.22;;
18574;SDS011;9417;16.484;102.872;2023-06-22T01:42:07;6.70;;;4.22;;
18574;SDS011;9417;16.484;102.872;2023-06-22T01:44:18;7.82;;;4.10;;
18574;SDS011;9417;16.484;102.872;2023-06-22T01:46:25;7.60;;;4.40;;
18574;SDS011;9417;16.484;102.872;2023-06-22T01:48:33;11.98;;;4.90;;
18574;SDS011;9417;16.484;102.872;2023-06-22T01:50:41;7.82;;;4.60;;
18574;SDS011;9417;16.484;102.872;2023-06-22T01:52:49;5.90;;;4.57;;
18574;SDS011;9417;16.484;102.872;2023-06-22T01:54:56;15.43;;;13.82;;
18574;SDS011;9417;16.484;102.872;2023-06-22T01:57:04;15.88;;;13.25;;
18574;SDS011;9417;16.484;102.872;2023-06-22T01:59:13;7.45;;;4.43;;
18574;SDS011;9417;16.484;102.872;2023-06-22T02:01:28;7.72;;;4.13;;
18574;SDS011;9417;16.484;102.872;2023-06-22T02:03:42;9.68;;;4.75;;
18574;SDS011;9417;16.484;102.872;2023-06-22T02:06:05;8.13;;;4.57;;
18574;SDS011;9417;16.484;102.872;2023-06-22T02:08:16;8.50;;;4.90;;
18574;SDS011;9417;16.484;102.872;2023-06-22T02:10:26;6.40;;;3.92;;
18574;SDS011;9417;16.484;102.872;2023-06-22T02:12:35;6.03;;;4.20;;
18574;SDS011;9417;16.484;102.872;2023-06-22T02:14:45;8.77;;;4.35;;
18574;SDS011;9417;16.484;102.872;2023-06-22T02:16:52;8.70;;;3.90;;
18574;SDS011;9417;16.484;102.872;2023-06-22T02:19:02;8.68;;;3.92;;
18574;SDS011;9417;16.484;102.872;2023-06-22T02:21:10;6.13;;;4.05;;
18574;SDS011;9417;16.484;102.872;2023-06-22T02:23:18;9.45;;;4.38;;
18574;SDS011;9417;16.484;102.872;2023-06-22T02:25:25;7.03;;;3.88;;
18574;SDS011;9417;16.484;102.872;2023-06-22T02:27:32;6.60;;;3.78;;
18574;SDS011;9417;16.484;102.872;2023-06-22T02:29:40;7.78;;;3.88;;
18574;SDS011;9417;16.484;102.872;2023-06-22T02:31:49;8.18;;;4.03;;
18574;SDS011;9417;16.484;102.872;2023-06-22T02:33:57;5.22;;;3.72;;
18574;SDS011;9417;16.484;102.872;2023-06-22T02:36:05;5.82;;;4.00;;
18574;SDS011;9417;16.484;102.872;2023-06-22T02:38:13;6.90;;;4.07;;
18574;SDS011;9417;16.484;102.872;2023-06-22T02:40:21;5.93;;;4.32;;
18574;SDS011;9417;16.484;102.872;2023-06-22T02:42:31;5.88;;;4.30;;
18574;SDS011;9417;16.484;102.872;2023-06-22T02:44:38;14.63;;;4.60;;
18574;SDS011;9417;16.484;102.872;2023-06-22T02:46:49;6.82;;;4.00;;
18574;SDS011;9417;16.484;102.872;2023-06-22T02:48:57;5.20;;;3.92;;
18574;SDS011;9417;16.484;102.872;2023-06-22T02:51:05;8.98;;;5.00;;
18574;SDS011;9417;16.484;102.872;2023-06-22T02:53:12;5.07;;;3.90;;
18574;SDS011;9417;16.484;102.872;2023-06-22T02:55:22;6.63;;;4.03;;
18574;SDS011;9417;16.484;102.872;2023-06-22T02:57:32;6.70;;;4.00;;
18574;SDS011;9417;16.484;102.872;2023-06-22T02:59:40;14.05;;;12.98;;
18574;SDS011;9417;16.484;102.872;2023-06-22T03:01:50;18.10;;;16.48;;
18574;SDS011;9417;16.484;102.872;2023-06-22T03:04:01;4.43;;;4.03;;
18574;SDS011;9417;16.484;102.872;2023-06-22T03:06:09;7.25;;;4.70;;
18574;SDS011;9417;16.484;102.872;2023-06-22T03:08:17;13.57;;;12.38;;
18574;SDS011;9417;16.484;102.872;2023-06-22T03:10:25;5.78;;;3.85;;
18574;SDS011;9417;16.484;102.872;2023-06-22T03:12:33;18.90;;;16.13;;
18574;SDS011;9417;16.484;102.872;2023-06-22T03:14:40;6.32;;;3.95;;
18574;SDS011;9417;16.484;102.872;2023-06-22T03:16:51;6.72;;;3.70;;
18574;SDS011;9417;16.484;102.872;2023-06-22T03:18:59;5.68;;;3.20;;
18574;SDS011;9417;16.484;102.872;2023-06-22T03:21:06;6.90;;;3.65;;
18574;SDS011;9417;16.484;102.872;2023-06-22T03:23:14;4.88;;;3.55;;
18574;SDS011;9417;16.484;102.872;2023-06-22T03:25:21;5.70;;;3.70;;
18574;SDS011;9417;16.484;102.872;2023-06-22T03:27:29;7.72;;;3.47;;
18574;SDS011;9417;16.484;102.872;2023-06-22T03:29:36;6.00;;;3.55;;
18574;SDS011;9417;16.484;102.872;2023-06-22T03:31:44;6.50;;;3.45;;
18574;SDS011;9417;16.484;102.872;2023-06-22T03:33:53;6.63;;;3.35;;
18574;SDS011;9417;16.484;102.872;2023-06-22T03:36:01;4.53;;;3.30;;
18574;SDS011;9417;16.484;102.872;2023-06-22T03:38:09;4.45;;;3.40;;
18574;SDS011;9417;16.484;102.872;2023-06-22T03:40:16;4.55;;;3.53;;
18574;SDS011;9417;16.484;102.872;2023-06-22T03:42:25;3.90;;;3.05;;
18574;SDS011;9417;16.484;102.872;2023-06-22T03:44:33;5.55;;;3.45;;
18574;SDS011;9417;16.484;102.872;2023-06-22T03:46:40;7.80;;;3.40;;
18574;SDS011;9417;16.484;102.872;2023-06-22T03:48:48;5.55;;;3.20;;
18574;SDS011;9417;16.484;102.872;2023-06-22T03:50:58;4.32;;;3.20;;
18574;SDS011;9417;16.484;102.872;2023-06-22T03:53:06;6.28;;;3.30;;
18574;SDS011;9417;16.484;102.872;2023-06-22T03:55:14;4.63;;;3.60;;
18574;SDS011;9417;16.484;102.872;2023-06-22T03:57:22;3.83;;;3.40;;
18574;SDS011;9417;16.484;102.872;2023-06-22T03:59:29;5.00;;;4.00;;
18574;SDS011;9417;16.484;102.872;2023-06-22T04:01:37;7.03;;;3.97;;
18574;SDS011;9417;16.484;102.872;2023-06-22T04:03:44;6.07;;;3.90;;
18574;SDS011;9417;16.484;102.872;2023-06-22T04:05:53;4.30;;;3.80;;
18574;SDS011;9417;16.484;102.872;2023-06-22T04:08:02;4.28;;;3.40;;
18574;SDS011;9417;16.484;102.872;2023-06-22T04:10:10;4.00;;;3.60;;
18574;SDS011;9417;16.484;102.872;2023-06-22T04:12:20;5.30;;;3.63;;
18574;SDS011;9417;16.484;102.872;2023-06-22T04:14:27;9.88;;;3.72;;
18574;SDS011;9417;16.484;102.872;2023-06-22T04:16:34;4.13;;;3.30;;
18574;SDS011;9417;16.484;102.872;2023-06-22T04:18:42;4.68;;;3.50;;
18574;SDS011;9417;16.484;102.872;2023-06-22T04:20:49;4.95;;;3.92;;
18574;SDS011;9417;16.484;102.872;2023-06-22T04:22:57;5.82;;;4.20;;
18574;SDS011;9417;16.484;102.872;2023-06-22T04:25:06;5.03;;;3.70;;
18574;SDS011;9417;16.484;102.872;2023-06-22T04:27:14;6.13;;;3.72;;
18574;SDS011;9417;16.484;102.872;2023-06-22T04:29:22;4.78;;;3.60;;
18574;SDS011;9417;16.484;102.872;2023-06-22T04:31:32;6.10;;;3.63;;
18574;SDS011;9417;16.484;102.872;2023-06-22T04:33:41;7.82;;;4.38;;
18574;SDS011;9417;16.484;102.872;2023-06-22T04:35:49;6.38;;;3.30;;
18574;SDS011;9417;16.484;102.872;2023-06-22T04:37:57;5.05;;;3.40;;
18574;SDS011;9417;16.484;102.872;2023-06-22T04:40:09;5.97;;;3.17;;
18574;SDS011;9417;16.484;102.872;2023-06-22T04:42:18;6.00;;;3.35;;
18574;SDS011;9417;16.484;102.872;2023-06-22T04:44:25;5.28;;;2.90;;
18574;SDS011;9417;16.484;102.872;2023-06-22T04:46:33;5.68;;;2.90;;
18574;SDS011;9417;16.484;102.872;2023-06-22T04:48:41;6.30;;;3.40;;
18574;SDS011;9417;16.484;102.872;2023-06-22T04:50:48;5.07;;;3.55;;
18574;SDS011;9417;16.484;102.872;2023-06-22T04:52:56;5.10;;;3.13;;
18574;SDS011;9417;16.484;102.872;2023-06-22T04:55:04;6.15;;;3.33;;
18574;SDS011;9417;16.484;102.872;2023-06-22T04:57:17;6.05;;;3.22;;
18574;SDS011;9417;16.484;102.872;2023-06-22T04:59:25;5.93;;;3.50;;
18574;SDS011;9417;16.484;102.872;2023-06-22T05:01:34;6.03;;;3.70;;
18574;SDS011;9417;16.484;102.872;2023-06-22T05:03:41;5.43;;;4.93;;
18574;SDS011;9417;16.484;102.872;2023-06-22T05:05:49;4.78;;;3.90;;
18574;SDS011;9417;16.484;102.872;2023-06-22T05:07:57;5.78;;;4.07;;
18574;SDS011;9417;16.484;102.872;2023-06-22T05:10:07;5.50;;;4.82;;
18574;SDS011;9417;16.484;102.872;2023-06-22T05:12:17;5.13;;;4.13;;
18574;SDS011;9417;16.484;102.872;2023-06-22T05:14:25;5.72;;;5.20;;
18574;SDS011;9417;16.484;102.872;2023-06-22T05:16:32;8.10;;;5.50;;
18574;SDS011;9417;16.484;102.872;2023-06-22T05:18:40;6.80;;;5.13;;
18574;SDS011;9417;16.484;102.872;2023-06-22T05:20:48;8.20;;;5.63;;
18574;SDS011;9417;16.484;102.872;2023-06-22T05:22:55;5.80;;;5.25;;
18574;SDS011;9417;16.484;102.872;2023-06-22T05:25:03;8.27;;;6.15;;
18574;SDS011;9417;16.484;102.872;2023-06-22T05:27:11;5.93;;;5.25;;
18574;SDS011;9417;16.484;102.872;2023-06-22T05:29:21;5.95;;;3.60;;
18574;SDS011;9417;16.484;102.872;2023-06-22T05:31:28;5.57;;;5.18;;
18574;SDS011;9417;16.484;102.872;2023-06-22T05:33:36;6.00;;;5.43;;
18574;SDS011;9417;16.484;102.872;2023-06-22T05:35:44;9.32;;;5.50;;
18574;SDS011;9417;16.484;102.872;2023-06-22T05:37:51;6.57;;;5.85;;
18574;SDS011;9417;16.484;102.872;2023-06-22T05:39:59;9.05;;;8.18;;
18574;SDS011;9417;16.484;102.872;2023-06-22T05:42:08;9.00;;;8.05;;
18574;SDS011;9417;16.484;102.872;2023-06-22T05:44:15;19.33;;;16.20;;
18574;SDS011;9417;16.484;102.872;2023-06-22T05:46:24;27.80;;;21.15;;
18574;SDS011;9417;16.484;102.872;2023-06-22T05:48:32;21.33;;;19.08;;
18574;SDS011;9417;16.484;102.872;2023-06-22T05:50:39;15.52;;;13.98;;
18574;SDS011;9417;16.484;102.872;2023-06-22T05:52:47;28.00;;;22.13;;
18574;SDS011;9417;16.484;102.872;2023-06-22T05:54:54;15.60;;;13.48;;
18574;SDS011;9417;16.484;102.872;2023-06-22T05:57:01;7.75;;;7.05;;
18574;SDS011;9417;16.484;102.872;2023-06-22T05:59:09;8.38;;;6.35;;
18574;SDS011;9417;16.484;102.872;2023-06-22T06:01:17;5.93;;;4.90;;
18574;SDS011;9417;16.484;102.872;2023-06-22T06:03:26;5.75;;;4.78;;
18574;SDS011;9417;16.484;102.872;2023-06-22T06:05:34;7.70;;;5.60;;
18574;SDS011;9417;16.484;102.872;2023-06-22T06:07:42;4.97;;;3.63;;
18574;SDS011;9417;16.484;102.872;2023-06-22T06:09:50;6.57;;;3.85;;
18574;SDS011;9417;16.484;102.872;2023-06-22T06:11:58;5.93;;;4.05;;
18574;SDS011;9417;16.484;102.872;2023-06-22T06:14:06;6.60;;;5.88;;
18574;SDS011;9417;16.484;102.872;2023-06-22T06:16:14;10.57;;;9.65;;
18574;SDS011;9417;16.484;102.872;2023-06-22T06:18:21;10.50;;;9.68;;
18574;SDS011;9417;16.484;102.872;2023-06-22T06:20:30;10.55;;;9.65;;
18574;SDS011;9417;16.484;102.872;2023-06-22T06:22:38;10.00;;;9.20;;
18574;SDS011;9417;16.484;102.872;2023-06-22T06:24:46;10.43;;;9.38;;
18574;SDS011;9417;16.484;102.872;2023-06-22T06:26:53;11.10;;;9.65;;
18574;SDS011;9417;16.484;102.872;2023-06-22T06:29:00;12.88;;;10.32;;
18574;SDS011;9417;16.484;102.872;2023-06-22T06:31:08;10.23;;;7.13;;
18574;SDS011;9417;16.484;102.872;2023-06-22T06:33:16;8.93;;;6.30;;
18574;SDS011;9417;16.484;102.872;2023-06-22T06:35:27;7.57;;;5.07;;
18574;SDS011;9417;16.484;102.872;2023-06-22T06:37:39;7.50;;;5.38;;
18574;SDS011;9417;16.484;102.872;2023-06-22T06:39:47;13.80;;;11.50;;
18574;SDS011;9417;16.484;102.872;2023-06-22T06:41:54;12.23;;;9.05;;
18574;SDS011;9417;16.484;102.872;2023-06-22T06:44:02;11.55;;;9.10;;
18574;SDS011;9417;16.484;102.872;2023-06-22T06:46:09;12.15;;;8.63;;
18574;SDS011;9417;16.484;102.872;2023-06-22T06:48:17;9.35;;;5.78;;
18574;SDS011;9417;16.484;102.872;2023-06-22T06:50:24;5.10;;;4.45;;
18574;SDS011;9417;16.484;102.872;2023-06-22T06:52:35;6.18;;;4.97;;
18574;SDS011;9417;16.484;102.872;2023-06-22T06:54:42;7.63;;;5.03;;
18574;SDS011;9417;16.484;102.872;2023-06-22T06:56:50;11.18;;;5.03;;
18574;SDS011;9417;16.484;102.872;2023-06-22T06:58:57;12.32;;;7.15;;
18574;SDS011;9417;16.484;102.872;2023-06-22T07:01:05;6.60;;;5.32;;
18574;SDS011;9417;16.484;102.872;2023-06-22T07:03:12;8.48;;;5.13;;
18574;SDS011;9417;16.484;102.872;2023-06-22T07:05:20;6.18;;;5.57;;
18574;SDS011;9417;16.484;102.872;2023-06-22T07:07:27;6.95;;;5.50;;
18574;SDS011;9417;16.484;102.872;2023-06-22T07:09:39;5.97;;;4.60;;
18574;SDS011;9417;16.484;102.872;2023-06-22T07:11:46;6.63;;;4.72;;
18574;SDS011;9417;16.484;102.872;2023-06-22T07:13:54;5.88;;;4.72;;
18574;SDS011;9417;16.484;102.872;2023-06-22T07:16:01;8.38;;;6.43;;
18574;SDS011;9417;16.484;102.872;2023-06-22T07:18:08;7.00;;;5.30;;
18574;SDS011;9417;16.484;102.872;2023-06-22T07:20:16;8.07;;;6.00;;
18574;SDS011;9417;16.484;102.872;2023-06-22T07:22:23;6.25;;;5.38;;
18574;SDS011;9417;16.484;102.872;2023-06-22T07:24:30;6.97;;;6.28;;
18574;SDS011;9417;16.484;102.872;2023-06-22T07:26:40;7.90;;;6.45;;
18574;SDS011;9417;16.484;102.872;2023-06-22T07:28:50;7.90;;;5.28;;
18574;SDS011;9417;16.484;102.872;2023-06-22T07:30:57;11.40;;;5.70;;
18574;SDS011;9417;16.484;102.872;2023-06-22T07:33:05;9.82;;;7.47;;
18574;SDS011;9417;16.484;102.872;2023-06-22T07:35:12;13.38;;;9.45;;
18574;SDS011;9417;16.484;102.872;2023-06-22T07:37:21;8.15;;;7.18;;
18574;SDS011;9417;16.484;102.872;2023-06-22T07:39:29;7.47;;;6.63;;
18574;SDS011;9417;16.484;102.872;2023-06-22T07:41:36;6.68;;;5.88;;
18574;SDS011;9417;16.484;102.872;2023-06-22T07:43:46;7.43;;;6.72;;
18574;SDS011;9417;16.484;102.872;2023-06-22T07:45:55;7.25;;;6.18;;
18574;SDS011;9417;16.484;102.872;2023-06-22T07:48:02;8.65;;;5.80;;
18574;SDS011;9417;16.484;102.872;2023-06-22T07:50:10;5.65;;;5.15;;
18574;SDS011;9417;16.484;102.872;2023-06-22T07:52:17;8.07;;;7.28;;
18574;SDS011;9417;16.484;102.872;2023-06-22T07:54:24;9.07;;;7.22;;
18574;SDS011;9417;16.484;102.872;2023-06-22T07:56:32;6.75;;;6.10;;
18574;SDS011;9417;16.484;102.872;2023-06-22T07:58:41;6.53;;;6.05;;
18574;SDS011;9417;16.484;102.872;2023-06-22T08:00:49;6.85;;;4.72;;
18574;SDS011;9417;16.484;102.872;2023-06-22T08:02:56;7.43;;;4.22;;
18574;SDS011;9417;16.484;102.872;2023-06-22T08:05:04;5.90;;;4.75;;
18574;SDS011;9417;16.484;102.872;2023-06-22T08:07:22;6.18;;;5.40;;
18574;SDS011;9417;16.484;102.872;2023-06-22T08:09:30;7.07;;;4.32;;
18574;SDS011;9417;16.484;102.872;2023-06-22T08:11:38;8.45;;;3.90;;
18574;SDS011;9417;16.484;102.872;2023-06-22T08:13:47;5.18;;;3.88;;
18574;SDS011;9417;16.484;102.872;2023-06-22T08:15:55;4.68;;;4.03;;
18574;SDS011;9417;16.484;102.872;2023-06-22T08:18:02;4.57;;;3.88;;
18574;SDS011;9417;16.484;102.872;2023-06-22T08:20:10;7.18;;;3.97;;
18574;SDS011;9417;16.484;102.872;2023-06-22T08:22:18;4.13;;;3.40;;
18574;SDS011;9417;16.484;102.872;2023-06-22T08:24:25;4.90;;;3.80;;
18574;SDS011;9417;16.484;102.872;2023-06-22T08:26:34;5.78;;;3.80;;
18574;SDS011;9417;16.484;102.872;2023-06-22T08:28:41;4.95;;;4.32;;
18574;SDS011;9417;16.484;102.872;2023-06-22T08:30:53;5.93;;;4.20;;
18574;SDS011;9417;16.484;102.872;2023-06-22T08:33:00;6.03;;;4.55;;
18574;SDS011;9417;16.484;102.872;2023-06-22T08:35:08;4.15;;;3.22;;
18574;SDS011;9417;16.484;102.872;2023-06-22T08:37:15;5.68;;;3.20;;
18574;SDS011;9417;16.484;102.872;2023-06-22T08:39:23;6.53;;;4.65;;
18574;SDS011;9417;16.484;102.872;2023-06-22T08:41:31;6.53;;;4.75;;
18574;SDS011;9417;16.484;102.872;2023-06-22T08:43:38;6.45;;;5.85;;
18574;SDS011;9417;16.484;102.872;2023-06-22T08:45:47;7.68;;;4.88;;
18574;SDS011;9417;16.484;102.872;2023-06-22T08:47:56;5.00;;;4.45;;
18574;SDS011;9417;16.484;102.872;2023-06-22T08:50:04;4.63;;;3.80;;
18574;SDS011;9417;16.484;102.872;2023-06-22T08:52:12;7.20;;;5.03;;
18574;SDS011;9417;16.484;102.872;2023-06-22T08:54:20;7.32;;;4.32;;
18574;SDS011;9417;16.484;102.872;2023-06-22T08:56:27;4.88;;;4.43;;
18574;SDS011;9417;16.484;102.872;2023-06-22T08:58:35;5.93;;;4.72;;
18574;SDS011;9417;16.484;102.872;2023-06-22T09:00:42;5.95;;;5.28;;
18574;SDS011;9417;16.484;102.872;2023-06-22T09:02:50;5.93;;;5.43;;
18574;SDS011;9417;16.484;102.872;2023-06-22T09:05:03;9.02;;;7.47;;
18574;SDS011;9417;16.484;102.872;2023-06-22T09:07:10;7.88;;;7.18;;
18574;SDS011;9417;16.484;102.872;2023-06-22T09:09:18;7.72;;;7.03;;
18574;SDS011;9417;16.484;102.872;2023-06-22T09:11:27;7.55;;;6.85;;
18574;SDS011;9417;16.484;102.872;2023-06-22T09:13:34;6.70;;;5.20;;
18574;SDS011;9417;16.484;102.872;2023-06-22T09:15:41;6.82;;;5.25;;
18574;SDS011;9417;16.484;102.872;2023-06-22T09:17:49;5.63;;;5.18;;
18574;SDS011;9417;16.484;102.872;2023-06-22T09:19:57;8.68;;;7.88;;
18574;SDS011;9417;16.484;102.872;2023-06-22T09:22:09;7.38;;;6.75;;
18574;SDS011;9417;16.484;102.872;2023-06-22T09:24:16;7.65;;;7.07;;
18574;SDS011;9417;16.484;102.872;2023-06-22T09:26:24;7.50;;;6.80;;
18574;SDS011;9417;16.484;102.872;2023-06-22T09:28:32;5.45;;;4.93;;
18574;SDS011;9417;16.484;102.872;2023-06-22T09:30:39;6.45;;;4.78;;
18574;SDS011;9417;16.484;102.872;2023-06-22T09:32:46;7.18;;;5.32;;
18574;SDS011;9417;16.484;102.872;2023-06-22T09:34:54;5.78;;;4.97;;
18574;SDS011;9417;16.484;102.872;2023-06-22T09:37:03;5.22;;;4.32;;
18574;SDS011;9417;16.484;102.872;2023-06-22T09:39:11;7.80;;;4.38;;
18574;SDS011;9417;16.484;102.872;2023-06-22T09:41:19;5.72;;;4.30;;
18574;SDS011;9417;16.484;102.872;2023-06-22T09:43:26;6.13;;;4.20;;
18574;SDS011;9417;16.484;102.872;2023-06-22T09:45:34;6.20;;;4.45;;
18574;SDS011;9417;16.484;102.872;2023-06-22T09:47:42;6.97;;;4.55;;
18574;SDS011;9417;16.484;102.872;2023-06-22T09:49:49;8.65;;;7.85;;
18574;SDS011;9417;16.484;102.872;2023-06-22T09:51:59;9.18;;;8.48;;
18574;SDS011;9417;16.484;102.872;2023-06-22T09:54:08;11.20;;;7.97;;
18574;SDS011;9417;16.484;102.872;2023-06-22T09:56:16;9.43;;;7.85;;
18574;SDS011;9417;16.484;102.872;2023-06-22T09:58:23;8.48;;;7.28;;
18574;SDS011;9417;16.484;102.872;2023-06-22T10:00:31;6.65;;;3.85;;
18574;SDS011;9417;16.484;102.872;2023-06-22T10:02:38;5.70;;;5.28;;
18574;SDS011;9417;16.484;102.872;2023-06-22T10:04:46;7.95;;;7.35;;
18574;SDS011;9417;16.484;102.872;2023-06-22T10:06:54;7.68;;;6.78;;
18574;SDS011;9417;16.484;102.872;2023-06-22T10:09:02;7.82;;;7.13;;
18574;SDS011;9417;16.484;102.872;2023-06-22T10:11:11;9.95;;;7.28;;
18574;SDS011;9417;16.484;102.872;2023-06-22T10:13:18;7.43;;;6.70;;
18574;SDS011;9417;16.484;102.872;2023-06-22T10:15:26;7.65;;;7.05;;
18574;SDS011;9417;16.484;102.872;2023-06-22T10:17:34;8.27;;;7.57;;
18574;SDS011;9417;16.484;102.872;2023-06-22T10:19:41;7.80;;;7.10;;
18574;SDS011;9417;16.484;102.872;2023-06-22T10:21:48;7.72;;;6.97;;
18574;SDS011;9417;16.484;102.872;2023-06-22T10:23:56;8.82;;;6.80;;
18574;SDS011;9417;16.484;102.872;2023-06-22T10:26:06;7.45;;;6.85;;
18574;SDS011;9417;16.484;102.872;2023-06-22T10:28:15;6.63;;;5.90;;
18574;SDS011;9417;16.484;102.872;2023-06-22T10:30:23;11.20;;;6.40;;
18574;SDS011;9417;16.484;102.872;2023-06-22T10:32:30;7.43;;;6.03;;
18574;SDS011;9417;16.484;102.872;2023-06-22T10:34:38;8.73;;;5.47;;
18574;SDS011;9417;16.484;102.872;2023-06-22T10:36:45;5.35;;;4.85;;
18574;SDS011;9417;16.484;102.872;2023-06-22T10:38:53;5.95;;;5.35;;
18574;SDS011;9417;16.484;102.872;2023-06-22T10:41:02;7.95;;;6.30;;
18574;SDS011;9417;16.484;102.872;2023-06-22T10:43:10;5.90;;;4.80;;
18574;SDS011;9417;16.484;102.872;2023-06-22T10:45:19;6.35;;;5.75;;
18574;SDS011;9417;16.484;102.872;2023-06-22T10:47:27;7.30;;;5.55;;
18574;SDS011;9417;16.484;102.872;2023-06-22T10:49:34;7.82;;;6.90;;
18574;SDS011;9417;16.484;102.872;2023-06-22T10:51:41;7.43;;;6.72;;
18574;SDS011;9417;16.484;102.872;2023-06-22T10:53:48;10.50;;;7.28;;
18574;SDS011;9417;16.484;102.872;2023-06-22T10:55:56;8.13;;;7.32;;
18574;SDS011;9417;16.484;102.872;2023-06-22T10:58:03;7.93;;;6.85;;
18574;SDS011;9417;16.484;102.872;2023-06-22T11:00:13;8.77;;;6.45;;
18574;SDS011;9417;16.484;102.872;2023-06-22T11:02:22;6.68;;;6.07;;
18574;SDS011;9417;16.484;102.872;2023-06-22T11:06:39;7.78;;;6.55;;
18574;SDS011;9417;16.484;102.872;2023-06-22T11:08:46;7.85;;;6.00;;
18574;SDS011;9417;16.484;102.872;2023-06-22T11:11:08;6.30;;;4.90;;
18574;SDS011;9417;16.484;102.872;2023-06-22T11:13:15;8.18;;;6.38;;
18574;SDS011;9417;16.484;102.872;2023-06-22T11:15:23;6.78;;;5.13;;
18574;SDS011;9417;16.484;102.872;2023-06-22T11:17:32;5.63;;;5.05;;
18574;SDS011;9417;16.484;102.872;2023-06-22T11:19:40;5.60;;;4.15;;
18574;SDS011;9417;16.484;102.872;2023-06-22T11:21:48;9.57;;;6.68;;
18574;SDS011;9417;16.484;102.872;2023-06-22T11:23:55;11.45;;;8.23;;
18574;SDS011;9417;16.484;102.872;2023-06-22T11:26:03;14.00;;;11.43;;
18574;SDS011;9417;16.484;102.872;2023-06-22T11:28:10;16.45;;;9.73;;
18574;SDS011;9417;16.484;102.872;2023-06-22T11:30:18;17.73;;;9.20;;
18574;SDS011;9417;16.484;102.872;2023-06-22T11:32:25;15.90;;;9.35;;
18574;SDS011;9417;16.484;102.872;2023-06-22T11:34:35;20.55;;;11.55;;
18574;SDS011;9417;16.484;102.872;2023-06-22T11:36:42;21.88;;;14.30;;
18574;SDS011;9417;16.484;102.872;2023-06-22T11:38:51;36.35;;;24.73;;
18574;SDS011;9417;16.484;102.872;2023-06-22T11:40:59;33.15;;;21.63;;
18574;SDS011;9417;16.484;102.872;2023-06-22T11:43:06;21.52;;;15.63;;
18574;SDS011;9417;16.484;102.872;2023-06-22T11:45:13;17.80;;;13.57;;
18574;SDS011;9417;16.484;102.872;2023-06-22T11:47:21;23.95;;;15.38;;
18574;SDS011;9417;16.484;102.872;2023-06-22T11:49:29;19.67;;;12.80;;
18574;SDS011;9417;16.484;102.872;2023-06-22T11:51:39;16.17;;;12.35;;
18574;SDS011;9417;16.484;102.872;2023-06-22T11:53:46;18.77;;;11.63;;
18574;SDS011;9417;16.484;102.872;2023-06-22T11:55:53;18.40;;;16.58;;
18574;SDS011;9417;16.484;102.872;2023-06-22T11:58:01;20.35;;;18.15;;
18574;SDS011;9417;16.484;102.872;2023-06-22T12:00:10;22.30;;;17.95;;
18574;SDS011;9417;16.484;102.872;2023-06-22T12:02:21;26.52;;;15.65;;
18574;SDS011;9417;16.484;102.872;2023-06-22T12:04:29;26.02;;;15.23;;
18574;SDS011;9417;16.484;102.872;2023-06-22T12:06:37;22.58;;;14.15;;
18574;SDS011;9417;16.484;102.872;2023-06-22T12:08:47;19.08;;;11.65;;
18574;SDS011;9417;16.484;102.872;2023-06-22T12:10:55;14.93;;;10.25;;
18574;SDS011;9417;16.484;102.872;2023-06-22T12:13:02;18.45;;;11.05;;
18574;SDS011;9417;16.484;102.872;2023-06-22T12:15:10;11.77;;;9.15;;
18574;SDS011;9417;16.484;102.872;2023-06-22T12:17:17;11.95;;;8.88;;
18574;SDS011;9417;16.484;102.872;2023-06-22T12:19:25;16.38;;;8.40;;
18574;SDS011;9417;16.484;102.872;2023-06-22T12:21:32;14.70;;;9.25;;
18574;SDS011;9417;16.484;102.872;2023-06-22T12:23:42;15.32;;;9.45;;
18574;SDS011;9417;16.484;102.872;2023-06-22T12:25:49;13.35;;;10.45;;
18574;SDS011;9417;16.484;102.872;2023-06-22T12:27:57;18.63;;;10.32;;
18574;SDS011;9417;16.484;102.872;2023-06-22T12:30:05;16.58;;;11.10;;
18574;SDS011;9417;16.484;102.872;2023-06-22T12:32:13;13.27;;;10.75;;
18574;SDS011;9417;16.484;102.872;2023-06-22T12:34:21;19.83;;;12.25;;
18574;SDS011;9417;16.484;102.872;2023-06-22T12:36:29;19.60;;;12.20;;
18574;SDS011;9417;16.484;102.872;2023-06-22T12:38:36;16.90;;;12.80;;